createdAt,value
2017-08-17T00:00:47.606Z,87.85
2017-08-17T00:03:13.447Z,87.66
2017-08-17T00:05:39.210Z,86.84
2017-08-17T00:08:04.974Z,87.07
2017-08-17T00:10:30.731Z,87.62
2017-08-17T00:12:56.508Z,88.27
2017-08-17T00:15:22.263Z,87.81
2017-08-17T00:17:48.044Z,87.30
2017-08-17T00:20:13.874Z,86.78
2017-08-17T00:22:39.667Z,85.84
2017-08-17T00:25:05.408Z,86.63
2017-08-17T00:27:31.176Z,86.38
2017-08-17T00:29:56.971Z,86.82
2017-08-17T00:32:22.714Z,88.04
2017-08-17T00:34:48.594Z,87.25
2017-08-17T00:37:14.406Z,86.64
2017-08-17T00:39:40.194Z,86.48
2017-08-17T00:42:05.988Z,86.68
2017-08-17T00:44:31.747Z,86.41
2017-08-17T00:46:57.547Z,86.90
2017-08-17T00:49:23.361Z,86.81
2017-08-17T00:51:49.113Z,87.01
2017-08-17T00:54:14.916Z,87.18
2017-08-17T00:56:40.686Z,86.94
2017-08-17T00:59:06.478Z,86.78
2017-08-17T01:01:32.250Z,86.45
2017-08-17T01:03:58.058Z,86.09
2017-08-17T01:06:23.855Z,86.65
2017-08-17T01:08:50.031Z,87.16
2017-08-17T01:11:15.799Z,87.10
2017-08-17T01:13:41.618Z,87.12
2017-08-17T01:16:07.370Z,87.23
2017-08-17T01:18:33.183Z,86.96
2017-08-17T01:20:58.971Z,87.48
2017-08-17T01:23:24.742Z,88.11
2017-08-17T01:25:50.527Z,87.94
2017-08-17T01:28:16.311Z,87.41
2017-08-17T01:30:42.146Z,87.24
2017-08-17T01:33:07.951Z,87.92
2017-08-17T01:35:33.724Z,88.03
2017-08-17T01:37:59.486Z,87.92
2017-08-17T01:40:25.281Z,88.37
2017-08-17T01:42:51.050Z,88.32
2017-08-17T01:45:16.829Z,87.80
2017-08-17T01:47:42.629Z,87.78
2017-08-17T01:50:08.398Z,88.35
2017-08-17T01:52:34.160Z,88.95
2017-08-17T01:54:59.986Z,88.18
2017-08-17T01:57:25.751Z,88.03
2017-08-17T01:59:51.551Z,90.00
2017-08-17T02:02:17.351Z,87.43
2017-08-17T02:04:43.109Z,87.67
2017-08-17T02:07:08.890Z,89.02
2017-08-17T02:09:34.743Z,89.03
2017-08-17T02:12:00.502Z,90.69
2017-08-17T02:14:26.290Z,89.49
2017-08-17T02:16:52.065Z,90.58
2017-08-17T02:19:17.811Z,90.62
2017-08-17T02:21:43.606Z,89.56
2017-08-17T02:24:09.386Z,88.72
2017-08-17T02:26:35.174Z,89.51
2017-08-17T02:29:00.971Z,88.89
2017-08-17T02:31:26.746Z,89.60
2017-08-17T02:33:52.499Z,89.99
2017-08-17T02:36:18.286Z,89.87
2017-08-17T02:38:44.028Z,89.60
2017-08-17T02:41:09.845Z,88.93
2017-08-17T02:43:35.623Z,89.20
2017-08-17T02:46:01.402Z,88.73
2017-08-17T02:48:27.186Z,88.00
2017-08-17T02:50:52.942Z,88.31
2017-08-17T02:53:18.769Z,88.29
2017-08-17T02:55:44.579Z,88.67
2017-08-17T02:58:10.342Z,89.11
2017-08-17T03:00:36.163Z,88.82
2017-08-17T03:03:01.927Z,88.39
2017-08-17T03:05:27.707Z,88.55
2017-08-17T03:07:53.485Z,88.43
2017-08-17T03:10:19.239Z,88.31
2017-08-17T03:12:45.023Z,89.32
2017-08-17T03:15:10.802Z,88.98
2017-08-17T03:17:36.580Z,89.04
2017-08-17T03:20:02.370Z,89.26
2017-08-17T03:22:28.122Z,89.78
2017-08-17T03:24:53.943Z,89.75
2017-08-17T03:27:19.741Z,89.57
2017-08-17T03:29:45.507Z,88.79
2017-08-17T03:32:11.327Z,88.97
2017-08-17T03:34:37.115Z,89.12
2017-08-17T03:37:02.914Z,89.14
2017-08-17T03:39:28.699Z,89.45
2017-08-17T03:41:54.468Z,88.86
2017-08-17T03:44:20.218Z,88.59
2017-08-17T03:46:46.008Z,88.55
2017-08-17T03:49:11.775Z,88.97
2017-08-17T03:51:37.520Z,90.05
2017-08-17T03:54:03.339Z,89.29
2017-08-17T03:56:29.098Z,88.64
2017-08-17T03:58:54.941Z,88.72
2017-08-17T04:01:20.702Z,88.83
2017-08-17T04:03:46.462Z,88.54
2017-08-17T04:06:12.536Z,89.73
2017-08-17T04:08:39.206Z,90.10
2017-08-17T04:11:05.047Z,90.13
2017-08-17T04:13:30.829Z,89.76
2017-08-17T04:15:56.631Z,89.86
2017-08-17T04:18:22.386Z,89.17
2017-08-17T04:20:48.138Z,88.86
2017-08-17T04:23:13.930Z,88.55
2017-08-17T04:25:39.683Z,89.12
2017-08-17T04:28:05.523Z,89.31
2017-08-17T04:30:31.339Z,89.51
2017-08-17T04:32:57.103Z,89.92
2017-08-17T04:35:22.855Z,89.14
2017-08-17T04:37:48.675Z,89.69
2017-08-17T04:40:14.420Z,90.57
2017-08-17T04:42:40.188Z,87.42
2017-08-17T04:45:06.016Z,87.76
2017-08-17T04:47:31.772Z,88.19
2017-08-17T04:49:57.561Z,92.01
2017-08-17T04:52:23.351Z,90.67
2017-08-17T04:54:49.136Z,90.01
2017-08-17T04:57:31.298Z,90.16
2017-08-17T04:59:57.118Z,89.23
2017-08-17T05:02:22.899Z,89.47
2017-08-17T05:04:48.666Z,89.27
2017-08-17T05:07:14.462Z,89.54
2017-08-17T05:09:40.214Z,88.53
2017-08-17T05:12:06.030Z,88.43
2017-08-17T05:14:31.912Z,89.99
2017-08-17T05:16:57.763Z,89.27
2017-08-17T05:19:23.519Z,86.98
2017-08-17T05:21:49.394Z,88.73
2017-08-17T05:24:15.481Z,89.58
2017-08-17T05:26:41.322Z,88.40
2017-08-17T05:29:07.115Z,87.71
2017-08-17T05:31:32.876Z,87.89
2017-08-17T05:33:58.678Z,87.68
2017-08-17T05:36:24.430Z,87.96
2017-08-17T05:38:50.197Z,87.25
2017-08-17T05:41:16.031Z,87.41
2017-08-17T05:43:41.875Z,88.15
2017-08-17T05:46:07.794Z,89.02
2017-08-17T05:48:33.578Z,89.52
2017-08-17T05:50:59.322Z,87.90
2017-08-17T05:53:25.127Z,87.35
2017-08-17T05:55:50.903Z,87.19
2017-08-17T05:58:16.653Z,87.14
2017-08-17T06:00:42.423Z,88.33
2017-08-17T06:03:08.302Z,87.78
2017-08-17T06:05:34.053Z,87.24
2017-08-17T06:07:59.830Z,86.99
2017-08-17T06:10:25.608Z,86.36
2017-08-17T06:12:51.469Z,86.65
2017-08-17T06:15:17.215Z,86.84
2017-08-17T06:17:42.991Z,87.03
2017-08-17T06:20:08.780Z,88.29
2017-08-17T06:22:34.651Z,88.11
2017-08-17T06:25:00.421Z,86.95
2017-08-17T06:27:26.194Z,86.72
2017-08-17T06:29:52.067Z,87.60
2017-08-17T06:32:17.854Z,88.29
2017-08-17T06:34:43.735Z,87.93
2017-08-17T06:37:09.495Z,87.02
2017-08-17T06:39:35.326Z,86.98
2017-08-17T06:42:01.178Z,86.77
2017-08-17T06:44:26.968Z,87.17
2017-08-17T06:46:52.791Z,86.44
2017-08-17T06:49:18.642Z,86.89
2017-08-17T06:51:44.463Z,86.95
2017-08-17T06:54:10.267Z,83.71
2017-08-17T06:56:36.026Z,83.96
2017-08-17T06:59:01.839Z,80.45
2017-08-17T07:01:27.575Z,78.86
2017-08-17T07:03:53.323Z,78.60
2017-08-17T07:06:19.106Z,77.57
2017-08-17T07:08:45.522Z,76.79
2017-08-17T07:11:11.321Z,75.58
2017-08-17T07:13:37.110Z,74.99
2017-08-17T07:16:02.856Z,72.61
2017-08-17T07:18:28.622Z,70.36
2017-08-17T07:20:54.385Z,68.94
2017-08-17T07:23:20.178Z,68.85
2017-08-17T07:25:45.934Z,67.94
2017-08-17T07:28:11.715Z,66.75
2017-08-17T07:30:37.562Z,67.58
2017-08-17T07:33:03.419Z,65.56
2017-08-17T07:35:29.212Z,66.57
2017-08-17T07:37:54.963Z,66.11
2017-08-17T07:40:20.704Z,63.33
2017-08-17T07:42:46.590Z,60.42
2017-08-17T07:45:12.360Z,60.27
2017-08-17T07:47:38.114Z,63.04
2017-08-17T07:50:03.943Z,64.51
2017-08-17T07:52:29.731Z,64.31
2017-08-17T07:54:55.541Z,63.17
2017-08-17T07:57:21.334Z,61.95
2017-08-17T07:59:47.083Z,56.94
2017-08-17T08:02:12.904Z,61.82
2017-08-17T08:04:38.640Z,61.38
2017-08-17T08:07:04.390Z,62.72
2017-08-17T08:09:30.177Z,60.06
2017-08-17T08:11:55.932Z,60.47
2017-08-17T08:14:21.699Z,60.74
2017-08-17T08:16:47.552Z,60.89
2017-08-17T08:19:13.331Z,62.56
2017-08-17T08:21:39.084Z,59.31
2017-08-17T08:24:04.891Z,59.34
2017-08-17T08:26:30.644Z,58.31
2017-08-17T08:28:56.392Z,59.13
2017-08-17T08:31:22.163Z,59.46
2017-08-17T08:33:47.947Z,58.53
2017-08-17T08:36:13.764Z,57.79
2017-08-17T08:38:39.514Z,58.54
2017-08-17T08:41:05.275Z,58.54
2017-08-17T08:43:31.099Z,58.02
2017-08-17T08:45:56.847Z,59.05
2017-08-17T08:48:22.663Z,58.07
2017-08-17T08:50:48.420Z,55.62
2017-08-17T08:53:14.255Z,57.93
2017-08-17T08:55:40.061Z,57.76
2017-08-17T08:58:05.818Z,57.00
2017-08-17T09:00:31.566Z,56.57
2017-08-17T09:02:57.387Z,57.30
2017-08-17T09:05:23.130Z,57.60
2017-08-17T09:07:48.894Z,57.50
2017-08-17T09:10:14.662Z,57.59
2017-08-17T09:12:40.419Z,58.44
2017-08-17T09:15:06.209Z,60.34
2017-08-17T09:17:31.990Z,61.63
2017-08-17T09:19:57.771Z,63.31
2017-08-17T09:22:23.526Z,63.91
2017-08-17T09:24:49.316Z,64.77
2017-08-17T09:27:15.070Z,66.48
2017-08-17T09:29:40.911Z,66.09
2017-08-17T09:32:06.691Z,66.67
2017-08-17T09:34:32.452Z,66.56
2017-08-17T09:36:58.227Z,65.83
2017-08-17T09:39:24.008Z,64.14
2017-08-17T09:41:49.812Z,58.43
2017-08-17T09:44:15.670Z,55.90
2017-08-17T09:46:41.481Z,52.77
2017-08-17T09:49:07.318Z,54.20
2017-08-17T09:51:33.065Z,54.06
2017-08-17T09:53:58.875Z,52.70
2017-08-17T09:56:24.651Z,52.17
2017-08-17T09:58:50.414Z,50.15
2017-08-17T10:01:16.232Z,48.08
2017-08-17T10:03:41.982Z,49.31
2017-08-17T10:06:07.807Z,51.23
2017-08-17T10:08:33.626Z,52.60
2017-08-17T10:10:59.458Z,52.56
2017-08-17T10:13:25.271Z,52.87
2017-08-17T10:15:51.065Z,53.53
2017-08-17T10:18:16.842Z,55.58
2017-08-17T10:20:42.600Z,57.10
2017-08-17T10:23:08.504Z,58.30
2017-08-17T10:25:34.302Z,57.86
2017-08-17T10:28:00.099Z,56.34
2017-08-17T10:30:25.871Z,54.60
2017-08-17T10:32:51.694Z,54.31
2017-08-17T10:35:17.459Z,53.00
2017-08-17T10:37:43.239Z,51.20
2017-08-17T10:40:08.983Z,51.70
2017-08-17T10:42:34.878Z,50.92
2017-08-17T10:45:00.675Z,50.22
2017-08-17T10:47:26.470Z,52.68
2017-08-17T10:49:52.276Z,51.26
2017-08-17T10:52:18.042Z,53.09
2017-08-17T10:54:43.835Z,53.44
2017-08-17T10:57:09.618Z,54.99
2017-08-17T10:59:35.453Z,53.18
2017-08-17T11:02:01.215Z,55.42
2017-08-17T11:04:27.019Z,48.99
2017-08-17T11:06:52.790Z,48.03
2017-08-17T11:09:18.543Z,46.70
2017-08-17T11:11:44.339Z,47.65
2017-08-17T11:14:10.103Z,45.61
2017-08-17T11:16:35.876Z,45.90
2017-08-17T11:19:01.757Z,48.49
2017-08-17T11:21:27.538Z,49.73
2017-08-17T11:23:53.370Z,48.52
2017-08-17T11:26:19.227Z,49.13
2017-08-17T11:28:45.042Z,50.01
2017-08-17T11:31:10.878Z,51.11
2017-08-17T11:33:36.678Z,54.79
2017-08-17T11:36:02.498Z,54.91
2017-08-17T11:38:28.289Z,54.73
2017-08-17T11:40:54.059Z,54.17
2017-08-17T11:43:19.859Z,54.83
2017-08-17T11:45:45.715Z,50.93
2017-08-17T11:48:11.534Z,47.76
2017-08-17T11:50:37.319Z,48.23
2017-08-17T11:53:03.063Z,45.33
2017-08-17T11:55:28.824Z,45.11
2017-08-17T11:57:54.654Z,43.47
2017-08-17T12:00:20.414Z,44.25
2017-08-17T12:02:46.203Z,42.75
2017-08-17T12:05:11.968Z,44.25
2017-08-17T12:07:37.730Z,44.65
2017-08-17T12:10:03.503Z,47.62
2017-08-17T12:12:29.263Z,45.40
2017-08-17T12:14:55.099Z,43.98
2017-08-17T12:17:20.839Z,43.73
2017-08-17T12:19:46.821Z,43.92
2017-08-17T12:22:12.691Z,44.85
2017-08-17T12:24:38.453Z,42.46
2017-08-17T12:27:04.310Z,42.16
2017-08-17T12:29:30.142Z,41.40
2017-08-17T12:31:55.961Z,43.07
2017-08-17T12:34:21.749Z,42.51
2017-08-17T12:36:47.681Z,43.17
2017-08-17T12:39:13.526Z,44.19
2017-08-17T12:41:39.273Z,43.99
2017-08-17T12:44:05.050Z,44.62
2017-08-17T12:46:30.818Z,46.70
2017-08-17T12:48:56.631Z,45.24
2017-08-17T12:51:22.415Z,46.00
2017-08-17T12:53:48.279Z,45.46
2017-08-17T12:56:14.098Z,44.74
2017-08-17T12:58:39.893Z,43.34
2017-08-17T13:01:05.639Z,40.44
2017-08-17T13:03:31.419Z,40.26
2017-08-17T13:05:57.187Z,39.83
2017-08-17T13:08:22.953Z,39.04
2017-08-17T13:10:48.755Z,37.99
2017-08-17T13:13:14.510Z,37.58
2017-08-17T13:15:40.319Z,36.36
2017-08-17T13:18:06.101Z,36.81
2017-08-17T13:20:31.878Z,36.92
2017-08-17T13:22:57.635Z,39.31
2017-08-17T13:25:23.399Z,40.32
2017-08-17T13:27:49.171Z,38.55
2017-08-17T13:30:14.966Z,37.87
2017-08-17T13:32:40.738Z,40.08
2017-08-17T13:35:06.583Z,40.10
2017-08-17T13:37:32.356Z,37.45
2017-08-17T13:39:58.118Z,38.37
2017-08-17T13:42:23.882Z,38.82
2017-08-17T13:44:49.636Z,37.76
2017-08-17T13:47:15.546Z,36.46
2017-08-17T13:49:41.320Z,37.65
2017-08-17T13:52:07.082Z,40.91
2017-08-17T13:54:32.894Z,41.41
2017-08-17T13:56:58.646Z,41.80
2017-08-17T13:59:24.430Z,44.52
2017-08-17T14:01:50.303Z,43.59
2017-08-17T14:04:16.048Z,41.34
2017-08-17T14:06:41.834Z,41.74
2017-08-17T14:09:07.610Z,46.45
2017-08-17T14:11:33.370Z,44.32
2017-08-17T14:13:59.175Z,47.25
2017-08-17T14:16:25.027Z,48.91
2017-08-17T14:18:50.945Z,49.81
2017-08-17T14:21:16.750Z,50.50
2017-08-17T14:23:42.507Z,49.18
2017-08-17T14:26:08.298Z,45.93
2017-08-17T14:28:34.099Z,41.00
2017-08-17T14:30:59.870Z,41.26
2017-08-17T14:33:25.621Z,42.66
2017-08-17T14:35:51.394Z,45.29
2017-08-17T14:38:17.167Z,44.69
2017-08-17T14:40:42.975Z,44.49
2017-08-17T14:43:08.737Z,43.21
2017-08-17T14:45:34.542Z,45.17
2017-08-17T14:48:00.314Z,43.12
2017-08-17T14:50:26.067Z,39.55
2017-08-17T14:52:51.897Z,40.34
2017-08-17T14:55:17.642Z,40.42
2017-08-17T14:57:43.411Z,37.71
2017-08-17T15:00:09.180Z,38.26
2017-08-17T15:02:34.966Z,37.67
2017-08-17T15:05:00.825Z,40.12
2017-08-17T15:07:26.602Z,39.73
2017-08-17T15:09:52.371Z,39.95
2017-08-17T15:12:18.130Z,39.40
2017-08-17T15:14:43.895Z,39.30
2017-08-17T15:17:09.678Z,40.19
2017-08-17T15:19:35.450Z,39.11
2017-08-17T15:22:01.314Z,38.71
2017-08-17T15:24:27.127Z,39.35
2017-08-17T15:26:52.875Z,39.06
2017-08-17T15:29:18.633Z,38.86
2017-08-17T15:31:44.418Z,39.21
2017-08-17T15:34:10.188Z,41.11
2017-08-17T15:36:36.039Z,43.86
2017-08-17T15:39:01.895Z,45.84
2017-08-17T15:41:27.694Z,46.79
2017-08-17T15:43:53.451Z,48.05
2017-08-17T15:46:19.199Z,47.60
2017-08-17T15:48:45.063Z,48.18
2017-08-17T15:51:10.842Z,48.05
2017-08-17T15:53:36.631Z,49.14
2017-08-17T15:56:02.390Z,48.65
2017-08-17T15:58:28.156Z,49.05
2017-08-17T16:00:53.954Z,47.28
2017-08-17T16:03:19.779Z,45.34
2017-08-17T16:05:45.586Z,44.21
2017-08-17T16:08:11.460Z,44.08
2017-08-17T16:10:37.202Z,43.84
2017-08-17T16:13:02.975Z,43.18
2017-08-17T16:15:28.756Z,42.65
2017-08-17T16:17:54.502Z,40.38
2017-08-17T16:20:20.274Z,40.86
2017-08-17T16:22:46.071Z,43.51
2017-08-17T16:25:11.939Z,42.86
2017-08-17T16:27:37.718Z,43.57
2017-08-17T16:30:03.554Z,41.14
2017-08-17T16:32:29.336Z,43.29
2017-08-17T16:34:55.123Z,45.58
2017-08-17T16:37:20.874Z,47.56
2017-08-17T16:39:46.638Z,48.89
2017-08-17T16:42:12.427Z,47.97
2017-08-17T16:44:38.178Z,44.25
2017-08-17T16:47:03.930Z,44.43
2017-08-17T16:49:29.750Z,43.40
2017-08-17T16:51:55.510Z,44.54
2017-08-17T16:54:21.302Z,43.65
2017-08-17T16:56:47.051Z,45.31
2017-08-17T16:59:12.786Z,45.89
2017-08-17T17:01:38.602Z,45.24
2017-08-17T17:04:04.410Z,48.96
2017-08-17T17:06:30.190Z,50.53
2017-08-17T17:08:55.987Z,52.38
2017-08-17T17:11:21.738Z,52.83
2017-08-17T17:13:47.502Z,54.03
2017-08-17T17:16:13.275Z,54.78
2017-08-17T17:18:39.023Z,55.28
2017-08-17T17:21:04.827Z,56.09
2017-08-17T17:23:30.589Z,56.72
2017-08-17T17:25:56.346Z,57.75
2017-08-17T17:28:22.149Z,56.77
2017-08-17T17:30:47.904Z,57.13
2017-08-17T17:33:13.715Z,57.69
2017-08-17T17:35:39.507Z,58.88
2017-08-17T17:38:05.334Z,59.33
2017-08-17T17:40:31.082Z,58.54
2017-08-17T17:42:56.850Z,59.21
2017-08-17T17:45:22.646Z,59.76
2017-08-17T17:47:48.526Z,60.91
2017-08-17T17:50:14.304Z,61.40
2017-08-17T17:52:40.070Z,59.67
2017-08-17T17:55:05.824Z,61.96
2017-08-17T17:57:31.639Z,63.11
2017-08-17T17:59:57.410Z,61.18
2017-08-17T18:02:23.193Z,62.04
2017-08-17T18:04:48.990Z,63.05
2017-08-17T18:07:14.807Z,63.10
2017-08-17T18:09:40.571Z,63.93
2017-08-17T18:12:06.411Z,65.32
2017-08-17T18:14:32.165Z,64.65
2017-08-17T18:16:57.949Z,63.36
2017-08-17T18:19:23.766Z,62.93
2017-08-17T18:21:49.511Z,64.50
2017-08-17T18:24:15.299Z,63.65
2017-08-17T18:26:41.059Z,63.86
2017-08-17T18:29:06.860Z,64.37
2017-08-17T18:31:32.617Z,64.37
2017-08-17T18:33:58.371Z,65.29
2017-08-17T18:36:24.315Z,66.23
2017-08-17T18:38:50.067Z,65.62
2017-08-17T18:41:15.899Z,66.74
2017-08-17T18:43:41.651Z,67.13
2017-08-17T18:46:07.427Z,68.10
2017-08-17T18:48:33.221Z,65.78
2017-08-17T18:50:58.979Z,66.71
2017-08-17T18:53:24.768Z,66.91
2017-08-17T18:55:50.560Z,68.59
2017-08-17T18:58:16.303Z,68.46
2017-08-17T19:00:42.107Z,65.40
2017-08-17T19:03:07.963Z,68.32
2017-08-17T19:05:33.764Z,66.50
2017-08-17T19:07:59.506Z,67.54
2017-08-17T19:10:25.267Z,67.02
2017-08-17T19:12:51.058Z,66.64
2017-08-17T19:15:16.879Z,67.28
2017-08-17T19:17:42.710Z,67.30
2017-08-17T19:20:08.483Z,67.49
2017-08-17T19:22:34.315Z,67.18
2017-08-17T19:25:00.111Z,67.79
2017-08-17T19:27:25.863Z,67.28
2017-08-17T19:29:51.658Z,67.43
2017-08-17T19:32:17.414Z,68.46
2017-08-17T19:34:44.203Z,68.91
2017-08-17T19:37:09.979Z,68.99
2017-08-17T19:39:35.743Z,69.66
2017-08-17T19:42:01.526Z,71.74
2017-08-17T19:44:27.313Z,71.35
2017-08-17T19:46:53.084Z,72.02
2017-08-17T19:49:18.889Z,71.94
2017-08-17T19:51:44.666Z,72.44
2017-08-17T19:54:10.450Z,72.75
2017-08-17T19:56:36.209Z,72.96
2017-08-17T19:59:01.986Z,73.57
2017-08-17T20:01:27.766Z,74.88
2017-08-17T20:03:53.541Z,73.80
2017-08-17T20:06:19.351Z,74.64
2017-08-17T20:08:45.774Z,76.27
2017-08-17T20:11:11.559Z,75.70
2017-08-17T20:13:37.335Z,75.25
2017-08-17T20:16:03.143Z,75.76
2017-08-17T20:18:28.893Z,76.22
2017-08-17T20:20:54.653Z,76.56
2017-08-17T20:23:20.531Z,76.52
2017-08-17T20:25:46.303Z,76.95
2017-08-17T20:28:12.058Z,76.63
2017-08-17T20:30:37.826Z,76.58
2017-08-17T20:33:03.590Z,76.99
2017-08-17T20:35:29.366Z,77.16
2017-08-17T20:37:55.132Z,77.27
2017-08-17T20:40:20.935Z,77.29
2017-08-17T20:42:46.684Z,76.91
2017-08-17T20:45:12.427Z,77.74
2017-08-17T20:47:38.200Z,76.89
2017-08-17T20:50:04.004Z,77.26
2017-08-17T20:52:29.745Z,77.61
2017-08-17T20:54:55.528Z,77.96
2017-08-17T20:57:21.379Z,77.70
2017-08-17T20:59:47.127Z,78.10
2017-08-17T21:02:12.874Z,77.96
2017-08-17T21:04:38.650Z,78.73
2017-08-17T21:07:04.464Z,78.85
2017-08-17T21:09:30.259Z,78.97
2017-08-17T21:11:56.050Z,79.59
2017-08-17T21:14:21.790Z,79.24
2017-08-17T21:16:47.614Z,79.49
2017-08-17T21:19:13.403Z,79.58
2017-08-17T21:21:39.166Z,78.94
2017-08-17T21:24:04.966Z,79.10
2017-08-17T21:26:30.770Z,79.37
2017-08-17T21:28:56.563Z,79.98
2017-08-17T21:31:22.330Z,80.04
2017-08-17T21:33:48.134Z,79.93
2017-08-17T21:36:13.905Z,79.62
2017-08-17T21:38:39.667Z,80.17
2017-08-17T21:41:05.463Z,80.22
2017-08-17T21:43:31.215Z,81.08
2017-08-17T21:45:57.030Z,80.84
2017-08-17T21:48:22.895Z,80.80
2017-08-17T21:50:48.682Z,80.67
2017-08-17T21:53:14.490Z,81.30
2017-08-17T21:55:40.230Z,81.34
2017-08-17T21:58:06.909Z,81.10
2017-08-17T22:00:32.725Z,81.49
2017-08-17T22:02:58.491Z,81.35
2017-08-17T22:05:24.294Z,81.33
2017-08-17T22:07:50.094Z,81.68
2017-08-17T22:10:15.850Z,82.07
2017-08-17T22:13:27.120Z,82.01
2017-08-17T22:15:53.028Z,82.21
2017-08-17T22:18:18.909Z,82.51
2017-08-17T22:20:44.770Z,82.73
2017-08-17T22:23:10.845Z,82.79
2017-08-17T22:25:36.732Z,82.32
2017-08-17T22:28:03.112Z,81.99
2017-08-17T22:30:29.039Z,82.74
2017-08-17T22:32:54.885Z,82.21
2017-08-17T22:35:20.661Z,82.50
2017-08-17T22:37:46.514Z,82.98
2017-08-17T22:40:12.299Z,83.09
2017-08-17T22:42:38.051Z,82.74
2017-08-17T22:45:03.911Z,82.88
2017-08-17T22:47:29.706Z,83.24
2017-08-17T22:49:55.565Z,83.82
2017-08-17T22:52:21.332Z,82.90
2017-08-17T22:54:47.289Z,82.93
2017-08-17T22:57:13.107Z,83.03
2017-08-17T22:59:38.965Z,82.79
2017-08-17T23:02:04.775Z,83.38
2017-08-17T23:04:30.555Z,83.82
2017-08-17T23:06:56.323Z,83.27
2017-08-17T23:09:22.183Z,83.69
2017-08-17T23:11:47.951Z,84.22
2017-08-17T23:14:13.725Z,84.33
2017-08-17T23:16:39.530Z,84.23
2017-08-17T23:19:05.270Z,83.84
2017-08-17T23:21:31.023Z,84.08
2017-08-17T23:23:56.826Z,83.75
2017-08-17T23:26:22.602Z,83.55
2017-08-17T23:28:48.381Z,83.62
2017-08-17T23:31:14.158Z,83.36
2017-08-17T23:33:40.018Z,83.95
2017-08-17T23:36:05.822Z,84.43
2017-08-17T23:38:31.591Z,84.19
2017-08-17T23:40:57.400Z,84.34
2017-08-17T23:43:23.194Z,84.15
2017-08-17T23:45:48.942Z,83.97
2017-08-17T23:48:14.719Z,84.55
2017-08-17T23:50:40.519Z,85.04
2017-08-17T23:53:06.371Z,84.71
2017-08-17T23:55:32.161Z,84.67
2017-08-17T23:57:57.900Z,84.72
